Time;durP1;ratioP1;P1;durP2;ratioP2;P2;SDS_P1;SDS_P2;PMS_P1;PMS_P2;Temp;Humidity;BMP_temperature;BMP_pressure;BME280_temperature;BME280_humidity;BME280_pressure;Samples;Min_cycle;Max_cycle;Signal;HPM_P1;HPM_P2
2022/11/07 00:02:25;;;;;;;4.20;3.10;;;9.50;99.90;;;;;;4993655;28;20531;-88
2022/11/07 00:04:50;;;;;;;5.30;2.77;;;9.50;99.90;;;;;;4993089;28;20223;-88
2022/11/07 00:07:17;;;;;;;3.33;2.60;;;9.50;99.90;;;;;;4994754;28;20178;-89
2022/11/07 00:09:43;;;;;;;3.43;2.50;;;9.50;99.90;;;;;;4996886;28;20172;-87
2022/11/07 00:12:09;;;;;;;4.10;3.10;;;9.50;99.90;;;;;;4998609;28;20187;-85
2022/11/07 00:14:34;;;;;;;4.27;2.93;;;9.50;99.90;;;;;;4997219;28;20198;-87
2022/11/07 00:17:08;;;;;;;5.97;3.10;;;9.50;99.90;;;;;;4997365;28;20234;-92
2022/11/07 00:19:34;;;;;;;4.17;3.03;;;9.50;99.90;;;;;;4997290;28;20179;-90
2022/11/07 00:21:59;;;;;;;4.00;2.90;;;9.50;99.90;;;;;;4996866;28;20220;-88
2022/11/07 00:24:25;;;;;;;5.37;2.70;;;9.40;99.90;;;;;;4997242;28;20171;-93
2022/11/07 00:26:54;;;;;;;3.30;2.50;;;9.40;99.90;;;;;;4997137;28;20573;-91
2022/11/07 00:29:20;;;;;;;3.50;2.73;;;9.30;99.90;;;;;;4998251;28;20173;-87
2022/11/07 00:31:47;;;;;;;5.50;2.80;;;9.30;99.90;;;;;;4998163;28;20203;-86
2022/11/07 00:34:13;;;;;;;3.53;2.43;;;9.30;99.90;;;;;;4998275;28;20183;-90
2022/11/07 00:36:38;;;;;;;4.63;3.30;;;9.20;99.90;;;;;;4996827;28;20191;-85
2022/11/07 00:39:05;;;;;;;4.43;2.90;;;9.10;99.90;;;;;;4996828;28;20187;-86
2022/11/07 00:41:31;;;;;;;4.47;3.07;;;9.10;99.90;;;;;;4996600;28;20573;-87
2022/11/07 00:43:56;;;;;;;5.10;2.80;;;9.20;99.90;;;;;;4997023;28;20176;-90
2022/11/07 00:46:22;;;;;;;6.43;2.90;;;9.10;99.90;;;;;;4997583;28;20615;-90
2022/11/07 00:48:55;;;;;;;4.93;2.83;;;9.20;99.90;;;;;;4997555;28;20180;-91
2022/11/07 00:51:23;;;;;;;3.83;2.90;;;9.20;99.90;;;;;;4998458;28;20160;-93
2022/11/07 00:53:50;;;;;;;3.57;2.80;;;9.10;99.90;;;;;;4997149;28;20191;-93
2022/11/07 00:56:18;;;;;;;4.00;2.63;;;9.10;99.90;;;;;;4997278;28;20172;-94
2022/11/07 00:58:52;;;;;;;3.67;3.00;;;9.10;99.90;;;;;;4997185;28;20184;-87
2022/11/07 01:01:21;;;;;;;4.07;3.00;;;9.10;99.90;;;;;;4997020;28;20226;-89
2022/11/07 01:06:35;;;;;;;4.20;3.00;;;9.10;99.90;;;;;;4997618;28;20322;-92
2022/11/07 01:09:07;;;;;;;3.53;2.80;;;9.10;99.90;;;;;;4998087;28;20183;-92
2022/11/07 01:11:35;;;;;;;3.77;3.00;;;9.10;99.90;;;;;;4996912;28;20518;-91
2022/11/07 01:14:01;;;;;;;4.43;3.33;;;9.20;99.90;;;;;;4996683;28;20179;-89
2022/11/07 01:16:29;;;;;;;4.20;2.83;;;9.20;99.90;;;;;;4996596;28;20212;-91
2022/11/07 01:18:57;;;;;;;6.00;2.90;;;9.20;99.90;;;;;;4996287;28;20187;-88
2022/11/07 01:21:23;;;;;;;3.97;2.92;;;9.20;99.90;;;;;;4995146;28;20548;-88
2022/11/07 01:23:49;;;;;;;5.23;2.93;;;9.10;99.90;;;;;;4997273;28;20179;-90
2022/11/07 01:26:16;;;;;;;5.00;3.23;;;9.20;99.90;;;;;;4997488;28;20614;-92
2022/11/07 01:28:41;;;;;;;10.90;2.83;;;9.20;99.90;;;;;;4997643;28;20171;-93
2022/11/07 01:31:10;;;;;;;3.43;2.87;;;9.20;99.90;;;;;;4996367;28;20606;-92
2022/11/07 01:33:37;;;;;;;3.33;2.60;;;9.20;99.90;;;;;;4996190;28;20267;-91
2022/11/07 01:36:12;;;;;;;4.37;2.80;;;9.20;99.90;;;;;;4996062;28;20619;-93
2022/11/07 01:38:47;;;;;;;5.13;2.53;;;9.20;99.90;;;;;;4996515;28;20267;-87
2022/11/07 01:41:25;;;;;;;5.47;2.90;;;9.20;99.90;;;;;;4996405;28;20187;-93
2022/11/07 01:44:03;;;;;;;3.17;2.87;;;9.20;99.90;;;;;;4996179;28;20246;-91
2022/11/07 01:46:40;;;;;;;3.97;2.77;;;9.20;99.90;;;;;;4996297;28;20188;-94
2022/11/07 01:49:21;;;;;;;5.37;2.87;;;9.20;99.90;;;;;;4996544;28;20188;-87
2022/11/07 01:52:08;;;;;;;3.77;2.63;;;9.20;99.90;;;;;;4995035;28;20214;-85
2022/11/07 01:54:43;;;;;;;3.10;2.30;;;9.30;99.90;;;;;;4996943;28;20195;-87
2022/11/07 01:57:16;;;;;;;6.67;2.73;;;9.30;99.90;;;;;;4995701;28;20226;-89
2022/11/07 01:59:42;;;;;;;4.17;2.40;;;9.30;99.90;;;;;;4995702;28;20593;-94
2022/11/07 02:02:08;;;;;;;2.92;2.35;;;9.30;99.90;;;;;;4996808;28;20211;-88
2022/11/07 02:04:35;;;;;;;3.80;2.60;;;9.40;99.90;;;;;;4995755;28;20194;-91
2022/11/07 02:07:15;;;;;;;4.32;2.45;;;9.40;99.90;;;;;;4996918;28;20234;-91
2022/11/07 02:09:43;;;;;;;3.77;2.57;;;9.50;99.90;;;;;;4997337;28;20175;-91
2022/11/07 02:12:09;;;;;;;7.23;2.80;;;9.40;99.90;;;;;;4995886;28;20524;-86
2022/11/07 02:14:34;;;;;;;4.07;2.40;;;9.40;99.90;;;;;;4995773;28;20180;-91
2022/11/07 02:17:00;;;;;;;4.75;2.85;;;9.50;99.90;;;;;;4995483;28;20191;-91
2022/11/07 02:19:43;;;;;;;4.70;2.00;;;9.50;99.90;;;;;;4995571;28;20184;-84
2022/11/07 02:22:33;;;;;;;3.00;2.10;;;9.60;99.90;;;;;;4996652;28;20208;-90
2022/11/07 02:25:02;;;;;;;2.43;2.13;;;9.60;99.90;;;;;;4996560;28;20180;-90
2022/11/07 02:27:30;;;;;;;5.25;2.35;;;9.60;99.90;;;;;;4994918;28;20557;-87
2022/11/07 02:30:18;;;;;;;8.73;2.78;;;9.70;99.90;;;;;;4995286;28;20180;-85
2022/11/07 02:32:44;;;;;;;5.18;2.05;;;9.70;99.90;;;;;;4994887;28;20187;-85
2022/11/07 02:35:28;;;;;;;5.40;2.43;;;9.70;99.90;;;;;;4995013;28;20267;-88
2022/11/07 02:37:54;;;;;;;7.03;2.53;;;9.70;99.90;;;;;;4995335;28;20179;-91
2022/11/07 02:40:20;;;;;;;2.53;1.90;;;9.70;99.90;;;;;;4995958;28;20488;-91
2022/11/07 02:42:46;;;;;;;4.38;2.20;;;9.70;99.90;;;;;;4995109;28;20257;-94
2022/11/07 02:45:25;;;;;;;4.00;1.92;;;9.70;99.90;;;;;;4995158;28;20179;-90
2022/11/07 02:47:51;;;;;;;4.27;2.47;;;9.70;99.90;;;;;;4995109;28;20183;-90
2022/11/07 02:50:17;;;;;;;3.30;2.23;;;9.70;99.90;;;;;;4994954;28;20322;-88
2022/11/07 02:52:43;;;;;;;2.83;2.03;;;9.70;99.90;;;;;;4994977;28;20196;-88
2022/11/07 02:55:10;;;;;;;3.35;2.08;;;9.70;99.90;;;;;;4995060;28;20184;-85
2022/11/07 02:57:36;;;;;;;3.53;2.08;;;9.70;99.90;;;;;;4995262;28;20211;-91
2022/11/07 03:00:04;;;;;;;3.05;2.10;;;9.80;99.90;;;;;;4995149;28;20623;-87
2022/11/07 03:02:30;;;;;;;3.58;1.90;;;9.80;99.90;;;;;;4995963;28;20270;-90
2022/11/07 03:04:56;;;;;;;3.70;2.30;;;9.80;99.90;;;;;;4994542;28;20211;-89
2022/11/07 03:07:21;;;;;;;5.65;2.08;;;9.80;99.90;;;;;;4995746;28;20235;-91
2022/11/07 03:09:49;;;;;;;4.28;2.00;;;9.80;99.90;;;;;;4994906;28;20198;-90
2022/11/07 03:12:15;;;;;;;2.55;1.85;;;9.80;99.90;;;;;;4995913;28;20172;-89
2022/11/07 03:14:41;;;;;;;3.17;1.83;;;9.80;99.90;;;;;;4995813;28;20172;-87
2022/11/07 03:17:07;;;;;;;3.85;1.92;;;9.90;99.90;;;;;;4994542;28;20176;-92
2022/11/07 03:19:35;;;;;;;3.90;1.80;;;9.80;99.90;;;;;;4994380;28;20199;-91
2022/11/07 03:22:01;;;;;;;3.17;1.95;;;9.80;99.90;;;;;;4995098;28;20294;-84
2022/11/07 03:24:28;;;;;;;2.80;1.65;;;9.90;99.90;;;;;;4994502;28;20180;-90
2022/11/07 03:26:54;;;;;;;3.72;1.90;;;9.90;99.90;;;;;;4995833;28;20194;-87
2022/11/07 03:29:20;;;;;;;4.90;2.00;;;9.90;99.90;;;;;;4994510;28;20195;-89
2022/11/07 03:31:46;;;;;;;3.85;1.80;;;9.90;99.90;;;;;;4994493;28;20186;-92
2022/11/07 03:34:12;;;;;;;4.97;1.73;;;9.90;99.90;;;;;;4995429;28;20180;-90
2022/11/07 03:36:37;;;;;;;4.47;1.77;;;10.00;99.90;;;;;;5009885;28;20190;-89
2022/11/07 03:39:08;;;;;;;4.03;1.80;;;9.90;99.90;;;;;;5013806;28;20182;-90
2022/11/07 03:41:34;;;;;;;4.65;1.85;;;9.90;99.90;;;;;;5014111;28;20207;-86
2022/11/07 03:43:59;;;;;;;4.03;1.65;;;9.90;99.90;;;;;;5017293;28;20205;-89
2022/11/07 03:46:25;;;;;;;2.67;1.58;;;10.00;99.90;;;;;;5017949;28;20175;-92
2022/11/07 03:48:51;;;;;;;5.28;1.65;;;10.00;99.90;;;;;;5019291;28;20179;-91
2022/11/07 03:51:16;;;;;;;2.47;1.90;;;10.00;99.90;;;;;;5019129;28;20221;-92
2022/11/07 03:53:42;;;;;;;2.50;1.48;;;10.00;99.90;;;;;;5017779;28;20183;-91
2022/11/07 03:56:09;;;;;;;4.18;1.58;;;10.10;99.90;;;;;;5018774;28;20179;-93
2022/11/07 03:58:35;;;;;;;4.85;1.92;;;10.10;99.90;;;;;;5017736;28;20183;-90
2022/11/07 04:01:01;;;;;;;3.17;1.75;;;10.10;99.90;;;;;;5017699;28;20184;-90
2022/11/07 04:03:27;;;;;;;5.78;1.63;;;10.10;99.90;;;;;;5017729;28;20194;-92
2022/11/07 04:05:53;;;;;;;3.90;1.73;;;10.10;99.90;;;;;;5007411;28;20227;-91
2022/11/07 04:08:19;;;;;;;5.60;2.00;;;10.10;99.90;;;;;;4997947;28;20672;-85
2022/11/07 04:10:45;;;;;;;3.20;1.90;;;10.00;99.90;;;;;;4997975;28;20176;-89
2022/11/07 04:17:17;;;;;;;3.33;1.52;;;10.00;99.90;;;;;;4999404;28;20181;-88
2022/11/07 04:18:53;;;;;;;2.58;1.65;;;10.00;99.90;;;;;;4998803;28;20263;-87
2022/11/07 04:21:19;;;;;;;3.15;1.80;;;10.00;99.90;;;;;;4997634;28;20623;-88
2022/11/07 04:23:45;;;;;;;3.92;1.80;;;9.90;99.90;;;;;;4998710;28;20191;-91
2022/11/07 04:28:55;;;;;;;5.07;1.83;;;9.90;99.90;;;;;;4999443;28;20175;-88
2022/11/07 04:31:21;;;;;;;2.35;1.70;;;10.00;99.90;;;;;;4997720;28;20172;-90
2022/11/07 04:33:47;;;;;;;3.37;1.67;;;10.00;99.90;;;;;;4997746;28;20184;-87
2022/11/07 04:36:12;;;;;;;3.22;1.75;;;10.00;99.90;;;;;;4998381;28;20192;-88
2022/11/07 04:38:38;;;;;;;3.58;1.30;;;10.00;99.90;;;;;;4998905;28;20176;-93
2022/11/07 04:41:04;;;;;;;4.93;1.48;;;10.00;99.90;;;;;;4997405;28;20179;-89
2022/11/07 04:43:29;;;;;;;3.28;1.30;;;10.00;99.90;;;;;;4997406;28;20190;-90
2022/11/07 04:45:55;;;;;;;4.88;1.33;;;10.00;99.90;;;;;;4997542;28;20517;-91
2022/11/07 04:48:21;;;;;;;1.92;1.33;;;10.10;99.90;;;;;;4998545;28;20180;-91
2022/11/07 04:50:47;;;;;;;7.45;1.35;;;10.10;99.90;;;;;;4997272;28;20172;-92
2022/11/07 04:53:14;;;;;;;3.20;1.60;;;10.00;99.90;;;;;;4998279;28;20172;-83
2022/11/07 04:55:40;;;;;;;2.88;1.10;;;10.00;99.90;;;;;;4996732;28;20641;-93
2022/11/07 04:58:06;;;;;;;2.93;1.50;;;10.10;99.90;;;;;;4997142;28;20176;-93
2022/11/07 05:00:31;;;;;;;2.43;1.30;;;10.10;99.90;;;;;;4998466;28;20179;-93
2022/11/07 05:02:57;;;;;;;3.83;1.38;;;10.10;99.90;;;;;;4996983;28;20253;-86
2022/11/07 05:05:23;;;;;;;2.40;1.40;;;10.10;99.90;;;;;;4996674;28;20319;-89
2022/11/07 05:07:48;;;;;;;3.45;1.40;;;10.10;99.90;;;;;;4996695;28;20176;-91
2022/11/07 05:10:26;;;;;;;3.17;1.52;;;10.10;99.90;;;;;;4997118;28;20180;-94
2022/11/07 05:12:53;;;;;;;3.70;1.75;;;10.10;99.90;;;;;;4997971;28;20164;-89
2022/11/07 05:15:19;;;;;;;4.22;1.20;;;10.10;99.90;;;;;;4996918;28;20231;-90
2022/11/07 05:17:45;;;;;;;3.47;1.60;;;10.10;99.90;;;;;;4996836;28;20180;-91
2022/11/07 05:20:35;;;;;;;2.83;1.20;;;10.20;99.90;;;;;;4996652;28;20535;-87
2022/11/07 05:23:14;;;;;;;2.40;1.48;;;10.20;99.90;;;;;;4996463;28;20565;-85
2022/11/07 05:25:48;;;;;;;5.40;1.20;;;10.20;99.90;;;;;;4997890;28;20215;-90
2022/11/07 05:28:21;;;;;;;4.18;1.83;;;10.10;99.90;;;;;;4997832;28;20175;-92
2022/11/07 05:30:47;;;;;;;2.40;1.38;;;10.00;99.90;;;;;;4997716;28;20192;-87
2022/11/07 05:33:15;;;;;;;1.97;1.37;;;10.10;99.90;;;;;;4997611;28;20164;-86
2022/11/07 05:35:42;;;;;;;3.42;1.08;;;10.10;99.90;;;;;;4996369;28;20268;-89
2022/11/07 05:38:07;;;;;;;1.55;1.27;;;10.00;99.90;;;;;;4996103;28;20258;-86
2022/11/07 05:40:35;;;;;;;2.13;1.20;;;10.00;99.90;;;;;;4996412;28;20565;-91
2022/11/07 05:43:02;;;;;;;2.25;1.38;;;10.10;99.90;;;;;;4995341;28;20698;-91
2022/11/07 05:45:30;;;;;;;2.30;1.30;;;10.00;99.90;;;;;;4976462;28;20211;-88
2022/11/07 05:47:59;;;;;;;2.75;1.40;;;10.10;99.90;;;;;;4978143;28;20251;-90
2022/11/07 05:50:26;;;;;;;5.85;1.30;;;10.00;99.90;;;;;;4977890;28;20200;-88
2022/11/07 05:52:52;;;;;;;4.53;1.50;;;10.10;99.90;;;;;;4977474;28;20173;-87
2022/11/07 05:55:18;;;;;;;3.10;1.33;;;10.00;99.90;;;;;;4992929;28;20177;-87
2022/11/07 05:57:44;;;;;;;3.60;1.43;;;10.10;99.90;;;;;;4992485;28;20204;-87
2022/11/07 06:00:12;;;;;;;2.30;1.60;;;10.00;99.90;;;;;;4992640;28;20180;-91
2022/11/07 06:02:38;;;;;;;3.08;1.38;;;10.10;99.90;;;;;;4977653;28;20219;-91
2022/11/07 06:05:04;;;;;;;4.22;1.40;;;10.10;99.90;;;;;;4998424;28;20223;-92
2022/11/07 06:07:34;;;;;;;2.90;1.50;;;10.10;99.90;;;;;;5016057;28;20187;-89
2022/11/07 06:09:59;;;;;;;1.60;1.23;;;10.10;99.90;;;;;;5015565;28;20622;-87
2022/11/07 06:12:25;;;;;;;2.65;1.58;;;10.00;99.90;;;;;;5015347;28;20229;-91
2022/11/07 06:14:51;;;;;;;2.33;1.20;;;10.00;99.90;;;;;;5015434;28;20171;-92
2022/11/07 06:17:17;;;;;;;2.40;1.27;;;10.00;99.90;;;;;;5015385;28;20266;-92
2022/11/07 06:19:42;;;;;;;3.45;1.40;;;9.90;99.90;;;;;;4997029;28;20630;-88
2022/11/07 06:22:12;;;;;;;4.85;1.65;;;9.90;99.90;;;;;;4995437;28;20299;-94
2022/11/07 06:24:37;;;;;;;4.70;1.60;;;9.80;99.90;;;;;;4994871;28;20188;-88
2022/11/07 06:27:03;;;;;;;2.85;1.00;;;9.80;99.90;;;;;;4995674;28;20267;-92
2022/11/07 06:29:29;;;;;;;3.10;1.33;;;9.80;99.90;;;;;;4995097;28;20199;-90
2022/11/07 06:32:02;;;;;;;3.50;1.13;;;9.80;99.90;;;;;;4995272;28;20242;-90
2022/11/07 06:34:27;;;;;;;2.75;1.60;;;9.90;99.90;;;;;;4995525;28;20210;-89
2022/11/07 06:36:54;;;;;;;2.83;1.35;;;10.00;99.90;;;;;;4995109;28;20606;-87
2022/11/07 06:39:21;;;;;;;2.42;1.10;;;10.00;99.90;;;;;;4996589;28;20202;-93
2022/11/07 06:41:49;;;;;;;2.83;1.35;;;10.00;99.90;;;;;;4996247;28;20972;-90
2022/11/07 06:44:16;;;;;;;2.13;1.23;;;10.10;99.90;;;;;;4995131;28;20599;-92
2022/11/07 06:46:41;;;;;;;3.05;1.40;;;10.10;99.90;;;;;;4995283;28;20622;-90
2022/11/07 06:49:07;;;;;;;3.07;1.03;;;10.10;99.90;;;;;;4996263;28;20180;-85
2022/11/07 06:51:34;;;;;;;3.90;1.40;;;10.20;99.90;;;;;;4994767;28;20176;-91
2022/11/07 06:53:59;;;;;;;1.67;1.02;;;10.20;99.90;;;;;;4994625;28;20175;-85
2022/11/07 06:56:25;;;;;;;8.25;1.33;;;10.30;99.90;;;;;;4994053;28;20182;-84
2022/11/07 06:58:51;;;;;;;1.45;0.98;;;10.20;99.90;;;;;;4995317;28;20203;-85
2022/11/07 07:01:18;;;;;;;1.95;1.02;;;10.30;99.90;;;;;;4995217;28;20559;-84
2022/11/07 07:03:44;;;;;;;2.88;1.20;;;10.20;99.90;;;;;;4995230;28;20183;-85
2022/11/07 07:06:14;;;;;;;3.15;1.40;;;10.20;99.90;;;;;;4994753;28;20220;-85
2022/11/07 07:08:41;;;;;;;2.60;1.20;;;10.20;99.90;;;;;;4993783;28;20278;-85
2022/11/07 07:11:09;;;;;;;2.10;1.00;;;10.30;99.90;;;;;;4993780;28;20508;-86
2022/11/07 07:13:36;;;;;;;4.63;1.40;;;10.30;99.90;;;;;;4995115;28;20164;-84
2022/11/07 07:16:02;;;;;;;4.80;1.42;;;10.20;99.90;;;;;;4994749;28;20180;-85
2022/11/07 07:18:28;;;;;;;1.50;1.27;;;10.20;99.90;;;;;;4994847;28;20183;-85
2022/11/07 07:21:07;;;;;;;1.92;1.13;;;10.20;99.90;;;;;;4994064;28;20242;-86
2022/11/07 07:23:34;;;;;;;3.90;1.40;;;10.10;99.90;;;;;;4994878;28;20522;-87
2022/11/07 07:26:02;;;;;;;3.47;1.52;;;10.10;99.90;;;;;;4993995;28;20183;-87
2022/11/07 07:28:28;;;;;;;3.65;1.20;;;10.20;99.90;;;;;;4994250;28;20262;-85
2022/11/07 07:31:29;;;;;;;4.22;1.20;;;10.20;99.90;;;;;;4994600;28;20176;-92
2022/11/07 07:33:56;;;;;;;1.45;1.15;;;10.30;99.90;;;;;;4974325;28;20199;-92
2022/11/07 07:36:22;;;;;;;2.08;0.80;;;10.20;99.90;;;;;;4994163;28;20180;-88
2022/11/07 07:38:49;;;;;;;6.88;1.52;;;10.20;99.90;;;;;;4995614;28;20184;-87
2022/11/07 07:41:17;;;;;;;6.35;1.42;;;10.20;99.90;;;;;;4994312;28;20176;-92
2022/11/07 07:43:42;;;;;;;4.63;1.10;;;10.20;99.90;;;;;;4995428;28;20211;-86
2022/11/07 07:46:13;;;;;;;3.88;1.30;;;10.30;99.90;;;;;;4995466;28;20200;-90
2022/11/07 07:48:38;;;;;;;6.05;1.40;;;10.30;99.90;;;;;;4994506;28;20188;-90
2022/11/07 07:51:08;;;;;;;3.33;1.52;;;10.40;99.90;;;;;;4994547;28;20614;-89
2022/11/07 07:53:34;;;;;;;5.05;1.25;;;10.40;99.90;;;;;;4995189;28;20168;-90
2022/11/07 07:56:01;;;;;;;4.60;1.48;;;10.40;99.90;;;;;;4995393;28;20260;-89
2022/11/07 07:58:27;;;;;;;1.75;1.00;;;10.40;99.90;;;;;;4995091;28;20176;-85
2022/11/07 08:00:57;;;;;;;3.25;1.27;;;10.50;99.90;;;;;;4993989;28;20187;-86
2022/11/07 08:03:24;;;;;;;2.13;1.10;;;10.50;99.90;;;;;;4993952;28;20211;-84
2022/11/07 08:05:55;;;;;;;5.63;1.58;;;10.60;99.90;;;;;;4993681;28;20242;-90
2022/11/07 08:08:21;;;;;;;3.60;1.02;;;10.70;99.90;;;;;;4993636;28;20622;-91
2022/11/07 08:10:52;;;;;;;2.40;1.00;;;10.80;99.90;;;;;;4995408;28;20230;-92
2022/11/07 08:13:25;;;;;;;6.93;1.60;;;10.80;99.90;;;;;;4994971;28;20180;-89
2022/11/07 08:15:52;;;;;;;3.10;1.45;;;10.80;99.90;;;;;;4993899;28;20702;-92
2022/11/07 08:18:20;;;;;;;5.30;1.20;;;10.90;99.90;;;;;;4994939;28;20520;-87
2022/11/07 08:20:52;;;;;;;3.15;1.08;;;10.90;99.90;;;;;;4993871;28;20574;-90
2022/11/07 08:23:19;;;;;;;3.67;1.02;;;10.90;99.90;;;;;;4993222;28;20215;-83
2022/11/07 08:25:53;;;;;;;7.30;1.30;;;11.00;99.90;;;;;;4993789;28;20275;-85
2022/11/07 08:28:21;;;;;;;2.33;1.20;;;11.00;99.90;;;;;;4993483;28;20180;-87
2022/11/07 08:31:01;;;;;;;2.22;1.17;;;11.10;99.90;;;;;;4996370;28;20183;-86
2022/11/07 08:33:28;;;;;;;4.40;1.23;;;11.20;99.90;;;;;;4997188;28;20908;-86
2022/11/07 08:36:01;;;;;;;2.30;1.30;;;11.20;99.90;;;;;;4998294;28;20234;-92
2022/11/07 08:38:28;;;;;;;3.65;1.23;;;11.20;99.90;;;;;;4997919;28;20352;-89
2022/11/07 08:40:55;;;;;;;4.05;1.10;;;11.30;99.90;;;;;;4998527;28;20204;-87
2022/11/07 08:43:21;;;;;;;5.70;1.50;;;11.30;99.90;;;;;;4998187;28;20204;-90
2022/11/07 08:45:48;;;;;;;5.43;1.23;;;11.30;99.90;;;;;;4998338;28;20168;-91
2022/11/07 08:48:14;;;;;;;3.67;1.23;;;11.30;99.90;;;;;;4997123;28;20506;-90
2022/11/07 08:50:41;;;;;;;2.95;1.00;;;11.40;99.90;;;;;;4998022;28;20185;-93
2022/11/07 08:53:08;;;;;;;5.22;1.38;;;11.40;99.90;;;;;;4997668;28;20199;-90
2022/11/07 08:55:34;;;;;;;2.30;1.25;;;11.40;99.90;;;;;;4998139;28;20188;-85
2022/11/07 08:58:07;;;;;;;4.35;1.05;;;11.50;99.90;;;;;;4996489;28;20237;-89
2022/11/07 09:00:34;;;;;;;2.63;1.20;;;11.50;99.90;;;;;;4996358;28;20180;-83
2022/11/07 09:03:04;;;;;;;3.55;1.40;;;11.60;99.90;;;;;;4996162;28;20211;-89
2022/11/07 09:05:31;;;;;;;2.42;1.17;;;11.60;99.90;;;;;;4997482;28;20567;-87
2022/11/07 09:07:56;;;;;;;2.70;1.27;;;11.60;99.90;;;;;;4997480;28;20207;-90
2022/11/07 09:10:23;;;;;;;3.80;1.20;;;11.60;99.90;;;;;;4996496;28;20215;-90
2022/11/07 09:12:50;;;;;;;3.88;1.40;;;11.60;99.90;;;;;;4996538;28;20262;-90
2022/11/07 09:15:16;;;;;;;1.98;0.93;;;11.50;99.90;;;;;;4997833;28;20244;-92
2022/11/07 09:17:43;;;;;;;4.30;1.00;;;11.50;99.90;;;;;;4996738;28;20176;-84
2022/11/07 09:20:09;;;;;;;5.85;1.30;;;11.60;99.90;;;;;;4996127;28;20206;-90
2022/11/07 09:22:36;;;;;;;3.67;1.15;;;11.70;99.90;;;;;;4996044;28;20234;-91
2022/11/07 09:25:02;;;;;;;4.60;1.30;;;11.70;99.90;;;;;;4997302;28;20168;-93
2022/11/07 09:27:27;;;;;;;8.35;1.50;;;11.70;99.90;;;;;;4995968;28;20195;-85
2022/11/07 09:29:53;;;;;;;3.65;1.45;;;11.70;99.90;;;;;;4996043;28;20180;-87
2022/11/07 09:32:19;;;;;;;2.95;1.10;;;11.80;99.90;;;;;;4996162;28;20572;-89
2022/11/07 09:34:44;;;;;;;2.63;1.45;;;11.80;99.90;;;;;;4996271;28;20212;-91
2022/11/07 09:37:10;;;;;;;3.97;1.40;;;11.90;99.90;;;;;;4995880;28;20266;-93
2022/11/07 09:39:36;;;;;;;2.85;1.20;;;12.00;99.90;;;;;;4995927;28;20182;-87
2022/11/07 09:42:24;;;;;;;3.20;1.48;;;12.10;99.90;;;;;;4995898;28;20235;-87
2022/11/07 09:44:55;;;;;;;5.10;1.15;;;12.10;99.90;;;;;;4996800;28;20187;-85
2022/11/07 09:47:37;;;;;;;4.97;1.17;;;12.10;99.90;;;;;;4996817;28;20211;-91
2022/11/07 09:50:25;;;;;;;7.40;1.67;;;12.10;99.90;;;;;;4996979;28;20619;-88
2022/11/07 09:53:06;;;;;;;2.85;1.40;;;12.10;99.90;;;;;;4995489;28;20180;-87
2022/11/07 09:55:40;;;;;;;3.55;1.27;;;12.10;99.90;;;;;;4996933;28;20258;-90
2022/11/07 09:58:27;;;;;;;5.75;1.35;;;12.10;99.90;;;;;;4996866;28;20172;-87
2022/11/07 10:00:59;;;;;;;4.30;1.27;;;12.10;99.90;;;;;;4995963;28;20179;-84
2022/11/07 10:03:25;;;;;;;4.47;1.20;;;12.00;99.90;;;;;;4995576;28;20212;-92
2022/11/07 10:06:10;;;;;;;3.90;1.17;;;12.20;99.90;;;;;;4996785;28;20240;-92
2022/11/07 10:08:42;;;;;;;2.67;1.10;;;12.30;99.90;;;;;;4995293;28;20179;-92
2022/11/07 10:11:28;;;;;;;4.28;1.30;;;12.30;99.90;;;;;;4996509;28;20168;-91
2022/11/07 10:14:03;;;;;;;3.97;1.23;;;12.40;99.90;;;;;;4995288;28;20258;-85
2022/11/07 10:16:46;;;;;;;4.15;1.15;;;12.60;99.90;;;;;;4995294;28;20621;-94
2022/11/07 10:19:18;;;;;;;3.25;1.20;;;12.60;99.90;;;;;;4995174;28;20196;-92
2022/11/07 10:21:48;;;;;;;3.35;0.98;;;12.70;99.90;;;;;;4996361;28;20200;-87
2022/11/07 10:24:23;;;;;;;4.60;1.33;;;12.70;99.90;;;;;;4996558;28;20196;-93
2022/11/07 10:26:49;;;;;;;3.78;1.17;;;12.70;99.90;;;;;;4995413;28;20622;-92
2022/11/07 10:29:20;;;;;;;2.28;1.13;;;12.70;99.90;;;;;;4995182;28;20183;-93
2022/11/07 10:31:56;;;;;;;7.10;1.33;;;12.70;99.90;;;;;;4995050;28;20319;-89
2022/11/07 10:34:40;;;;;;;4.32;1.50;;;12.70;99.90;;;;;;4994270;28;20183;-91
2022/11/07 10:37:07;;;;;;;1.80;1.02;;;12.70;99.90;;;;;;4994629;28;20199;-91
2022/11/07 10:39:33;;;;;;;4.18;1.77;;;12.80;99.90;;;;;;4995007;28;20180;-91
2022/11/07 10:41:59;;;;;;;3.00;1.30;;;12.80;99.90;;;;;;4995004;28;20210;-91
2022/11/07 10:44:28;;;;;;;5.95;1.50;;;12.80;99.90;;;;;;4994961;28;20262;-93
2022/11/07 10:46:55;;;;;;;4.22;1.50;;;12.80;99.90;;;;;;4994962;28;20176;-89
2022/11/07 10:49:23;;;;;;;2.33;1.02;;;12.80;99.90;;;;;;5008966;28;20195;-87
2022/11/07 10:51:49;;;;;;;7.03;1.30;;;12.80;99.90;;;;;;5014242;28;20183;-90
2022/11/07 10:54:28;;;;;;;3.55;1.20;;;12.80;99.90;;;;;;5014413;28;20602;-92
2022/11/07 10:57:08;;;;;;;6.25;1.30;;;12.80;99.90;;;;;;5014271;28;20171;-92
2022/11/07 10:59:36;;;;;;;5.55;1.25;;;12.90;99.90;;;;;;5015605;28;20164;-88
2022/11/07 11:02:19;;;;;;;6.47;1.65;;;12.80;99.90;;;;;;5015436;28;20665;-93
2022/11/07 11:04:55;;;;;;;5.03;1.42;;;12.80;99.90;;;;;;5013968;28;20179;-88
2022/11/07 11:07:25;;;;;;;4.50;1.30;;;12.80;99.90;;;;;;5014536;28;20237;-91
2022/11/07 11:09:56;;;;;;;2.28;1.10;;;12.80;99.90;;;;;;5013616;28;20262;-87
2022/11/07 11:12:33;;;;;;;3.63;1.15;;;12.90;99.90;;;;;;5013652;28;20183;-90
2022/11/07 11:15:11;;;;;;;4.30;1.13;;;12.80;99.90;;;;;;5014802;28;20614;-91
2022/11/07 11:17:38;;;;;;;5.85;1.58;;;12.80;99.90;;;;;;5013107;28;20175;-88
2022/11/07 11:20:05;;;;;;;5.47;1.10;;;12.90;99.90;;;;;;4994971;28;20176;-92
2022/11/07 11:22:40;;;;;;;4.22;1.13;;;12.90;99.90;;;;;;4993312;28;20314;-89
2022/11/07 11:25:29;;;;;;;4.40;1.25;;;12.80;99.90;;;;;;4995071;28;20183;-90
2022/11/07 11:28:07;;;;;;;3.10;1.30;;;12.80;99.90;;;;;;4993800;28;20683;-90
2022/11/07 11:30:35;;;;;;;9.02;1.38;;;12.80;99.90;;;;;;4993764;28;20172;-87
2022/11/07 11:33:24;;;;;;;13.02;1.30;;;12.80;99.90;;;;;;4993691;28;20176;-89
2022/11/07 11:35:59;;;;;;;3.95;1.17;;;12.80;99.90;;;;;;4993507;28;20491;-89
2022/11/07 11:38:30;;;;;;;4.72;1.20;;;12.80;99.90;;;;;;4993368;28;20258;-91
2022/11/07 11:41:17;;;;;;;6.35;1.25;;;12.80;99.90;;;;;;4994746;28;20175;-92
2022/11/07 11:43:54;;;;;;;5.97;1.30;;;12.90;99.90;;;;;;4994766;28;20774;-85
2022/11/07 11:46:19;;;;;;;5.05;1.48;;;12.90;99.90;;;;;;4994713;28;20180;-88
2022/11/07 11:49:12;;;;;;;5.95;1.55;;;13.00;99.90;;;;;;4993321;28;20199;-91
2022/11/07 11:51:54;;;;;;;4.07;1.50;;;13.00;99.90;;;;;;4993476;28;20187;-84
2022/11/07 11:54:20;;;;;;;3.33;1.05;;;13.10;99.90;;;;;;4993215;28;20187;-84
2022/11/07 11:56:56;;;;;;;6.07;1.20;;;13.10;99.90;;;;;;4994791;28;20164;-84
2022/11/07 11:59:37;;;;;;;2.58;1.17;;;13.20;99.90;;;;;;4993669;28;20183;-87
2022/11/07 12:02:48;;;;;;;7.53;1.60;;;13.30;99.90;;;;;;4994630;28;20195;-84
2022/11/07 12:05:23;;;;;;;5.38;1.85;;;13.30;99.90;;;;;;4995714;28;20702;-84
2022/11/07 12:08:30;;;;;;;7.15;1.20;;;13.30;99.90;;;;;;4998336;28;20246;-86
2022/11/07 12:11:20;;;;;;;5.15;1.30;;;13.20;99.90;;;;;;4998257;28;20160;-83
2022/11/07 12:14:15;;;;;;;5.72;1.05;;;13.10;99.90;;;;;;4998356;28;20164;-85
2022/11/07 12:16:56;;;;;;;6.60;1.40;;;13.10;99.90;;;;;;4996957;28;20614;-85
2022/11/07 12:19:27;;;;;;;3.47;1.00;;;13.10;99.90;;;;;;4997423;28;20194;-84
2022/11/07 12:22:13;;;;;;;6.07;1.05;;;13.10;99.90;;;;;;4997089;28;20670;-85
2022/11/07 12:25:07;;;;;;;8.82;1.30;;;13.20;99.90;;;;;;4996687;28;20270;-91
2022/11/07 12:27:59;;;;;;;2.40;1.00;;;13.30;99.90;;;;;;4998008;28;20171;-83
2022/11/07 12:30:35;;;;;;;3.30;1.05;;;13.40;99.90;;;;;;4996828;28;20172;-87
2022/11/07 12:33:27;;;;;;;7.82;1.35;;;13.50;99.90;;;;;;4996629;28;20172;-83
2022/11/07 12:36:09;;;;;;;4.65;1.20;;;13.60;99.90;;;;;;4996543;28;20172;-83
2022/11/07 12:38:44;;;;;;;6.30;1.35;;;13.60;99.90;;;;;;4997744;28;20172;-84
2022/11/07 12:41:51;;;;;;;3.55;1.25;;;13.70;99.90;;;;;;4996590;28;20564;-84
2022/11/07 12:44:34;;;;;;;7.43;1.58;;;13.70;99.90;;;;;;4996004;28;20203;-84
2022/11/07 12:47:06;;;;;;;6.65;1.10;;;13.80;99.90;;;;;;4996382;28;20196;-84
2022/11/07 12:49:55;;;;;;;4.80;1.27;;;13.80;99.90;;;;;;4996353;28;20199;-84
2022/11/07 12:52:24;;;;;;;2.67;1.05;;;13.70;99.90;;;;;;4997467;28;20671;-85
2022/11/07 12:55:03;;;;;;;3.80;1.02;;;13.70;99.90;;;;;;4997435;28;20389;-85
2022/11/07 12:57:35;;;;;;;6.10;1.50;;;13.70;99.90;;;;;;4996229;28;20172;-84
2022/11/07 13:00:18;;;;;;;2.80;1.05;;;13.80;99.90;;;;;;4997435;28;20179;-84
2022/11/07 13:03:17;;;;;;;3.58;1.40;;;13.90;99.90;;;;;;4996071;28;20219;-86
2022/11/07 13:06:00;;;;;;;4.82;0.90;;;13.90;99.90;;;;;;4997945;28;20617;-85
2022/11/07 13:08:26;;;;;;;3.47;1.30;;;13.90;99.90;;;;;;4997627;28;20172;-92
2022/11/07 13:10:54;;;;;;;3.17;1.17;;;13.90;99.90;;;;;;4997780;28;20175;-92
2022/11/07 13:13:37;;;;;;;2.15;0.95;;;13.90;99.90;;;;;;4996626;28;20176;-89
2022/11/07 13:16:24;;;;;;;3.38;1.10;;;13.90;99.90;;;;;;4997409;28;20271;-88
2022/11/07 13:18:50;;;;;;;10.18;1.38;;;13.90;99.90;;;;;;4996345;28;20198;-90